Flight Track Log - Related Links

Times and Time Zones

All times are in EDT time to prevent confusion due to time zone crossing. See the N528QS flight status page for this flight to view local times or setup timezone preferences in your user account.

Time Position Orientation Groundspeed Altitude Reporting Facility
EDT Latitude Longitude Course Direction KTS MPH feet Rate Location/Type
Thu 12:13:22 PM 32.3000 -81.2556 287° West 242 278 8,800  Level Jacksonville Center
Thu 12:14:22 PM 32.3219 -81.3461 286° West 247 284 12,200 2,650 Climbing Jacksonville Center
Thu 12:15:22 PM 32.3381 -81.4739 279° West 329 379 14,100 2,200 Climbing Jacksonville Center
Thu 12:16:00 PM 32.2828 -81.7868 288° West  Level FlightAware Approximate
Thu 12:16:22 PM 32.3583 -81.5942 281° West 381 438 16,600  Level Jacksonville Center
Thu 12:17:00 PM 32.3092 -81.8864 287° West  Level FlightAware Approximate
Thu 12:17:22 PM 32.3803 -81.7217 282° West 399 459 19,200  Level Jacksonville Center
Thu 12:18:00 PM 32.3342 -81.9865 287° West  Level FlightAware Approximate
Thu 12:19:06 PM 32.4153 -81.9375 281° West 394 453 22,300  Level Atlanta Center
Thu 12:20:06 PM 32.4386 -82.0750 281° West 415 478 23,000 350 Climbing Atlanta Center
Thu 12:21:06 PM 32.4636 -82.2172 282° West 432 497 23,000  Level Atlanta Center
Thu 12:22:06 PM 32.5136 -82.3467 295° West 432 497 23,000  Level Atlanta Center
Thu 12:23:06 PM 32.5736 -82.4736 299° West 437 503 23,000  Level Atlanta Center
Thu 12:24:06 PM 32.6356 -82.5983 301° West 437 503 23,000  Level Atlanta Center
Thu 12:25:06 PM 32.6978 -82.7256 300° West 437 503 23,000  Level Atlanta Center
Thu 12:26:06 PM 32.7594 -82.8483 301° West 442 509 23,000  Level Atlanta Center
Thu 12:27:06 PM 32.8192 -82.9761 299° West 442 509 23,000 -150 Level Atlanta Center
Thu 12:28:06 PM 32.8806 -83.1014 300° West 442 509 22,700 -1,100 Descending Atlanta Center
Thu 12:29:06 PM 32.9378 -83.2269 299° West 442 509 20,800 -2,000 Descending Atlanta Center
Thu 12:30:06 PM 33.0056 -83.3625 301° West 442 509 18,700 -1,800 Descending Atlanta Center
Thu 12:31:06 PM 33.0497 -83.4564 299° West 428 493 17,200 -1,950 Descending Atlanta Center
Thu 12:32:06 PM 33.1131 -83.5850 300° West 412 474 14,800 -2,350 Descending Atlanta Center
Thu 12:33:06 PM 33.1739 -83.6914 304° West 401 461 12,500 -1,400 Descending Atlanta Center
Thu 12:34:06 PM 33.2347 -83.8078 302° West 387 445 12,000 -250 Descending Atlanta Center
Thu 12:35:06 PM 33.2806 -83.8947 302° West 351 404 12,000 -950 Level Atlanta Center
Thu 12:36:06 PM 33.3225 -83.9742 302° West 303 349 10,100 -1,800 Descending Atlanta Center
Thu 12:37:06 PM 33.3706 -84.0464 309° West 281 323 8,400 -1,600 Descending Atlanta Center
Thu 12:38:06 PM 33.4289 -84.0861 330° Northwest 240 276 6,900 -1,200 Descending Atlanta Center
Thu 12:39:06 PM 33.4644 -84.0289 53° Northeast 177 204 6,000 -450 Descending Atlanta Center
Thu 12:40:06 PM 33.5083 -83.9764 45° Northeast 194 223 6,000 -300 Level Atlanta Center
Thu 12:41:06 PM 33.5606 -83.9492 23° Northeast 206 237 5,400 -500 Descending Atlanta Center
Thu 12:42:06 PM 33.6189 -83.9589 352° North 201 231 5,000 -130 Descending Atlanta Center
Thu 12:44:11 PM 33.6500 -84.1000 285° West 198 228 5,000 -32 Level Atlanta TRACON
Thu 12:45:11 PM 33.6500 -84.1667 270° West 194 223 4,900 -522 Descending Atlanta TRACON
Thu 12:46:06 PM 33.6500 -84.2167 270° West 196 226 4,000 -991 Descending Atlanta TRACON
Thu 12:47:06 PM 33.6500 -84.2833 270° West 195 224 3,000 -950 Descending Atlanta TRACON
Thu 12:48:06 PM 33.6500 -84.3500 270° West 177 204 2,100 -900 Descending Atlanta TRACON
Thu 12:49:06 PM 33.6500 -84.4000 270° West 149 171 1,200 -900 Descending Atlanta TRACON
Thu 12:51:00 PM 33.6367 -84.4279 240° Southwest  Level Estimated

Login

Don't have an account? Register now (free) for customized features, flight alerts, and more!